Time;durP1;ratioP1;P1;durP2;ratioP2;P2;SDS_P1;SDS_P2;PMS_P1;PMS_P2;Temp;Humidity;BMP_temperature;BMP_pressure;BME280_temperature;BME280_humidity;BME280_pressure;Samples;Min_cycle;Max_cycle;Signal;HPM_P1;HPM_P2
2024/02/26 00:00:19;;;;;;;;;;;9.50;99.90;;;;;;4976267;29;19906;-80
2024/02/26 00:02:45;;;;;;;;;;;9.30;99.90;;;;;;4959642;29;19941;-80
2024/02/26 00:05:11;;;;;;;;;;;9.30;99.90;;;;;;4959486;29;19906;-79
2024/02/26 00:07:36;;;;;;;;;;;9.30;99.90;;;;;;4958721;29;19890;-80
2024/02/26 00:10:02;;;;;;;;;;;9.20;99.90;;;;;;4960398;29;19945;-79
2024/02/26 00:12:28;;;;;;;;;;;9.20;99.90;;;;;;4959286;29;20268;-80
2024/02/26 00:14:53;;;;;;;;;;;9.20;99.90;;;;;;4976752;29;19906;-80
2024/02/26 00:17:19;;;;;;;;;;;9.30;99.90;;;;;;4976923;29;19906;-79
2024/02/26 00:19:44;;;;;;;;;;;9.30;99.90;;;;;;4959403;29;19973;-79
2024/02/26 00:22:10;;;;;;;;;;;9.30;99.90;;;;;;4960368;29;19949;-79
2024/02/26 00:24:36;;;;;;;;;;;9.30;99.90;;;;;;4954550;29;19907;-80
2024/02/26 00:27:01;;;;;;;;;;;9.30;99.90;;;;;;4975559;29;19906;-80
2024/02/26 00:29:27;;;;;;;;;;;9.60;99.90;;;;;;4957585;29;19906;-78
2024/02/26 00:31:52;;;;;;;;;;;9.30;99.90;;;;;;4959010;29;19981;-80
2024/02/26 00:34:18;;;;;;;;;;;9.30;99.90;;;;;;4957585;29;19906;-79
2024/02/26 00:36:43;;;;;;;;;;;9.40;99.90;;;;;;4959964;29;19907;-80
2024/02/26 00:39:12;;;;;;;;;;;9.10;99.90;;;;;;4977037;29;19955;-79
2024/02/26 00:41:41;;;;;;;;;;;9.40;99.90;;;;;;4975598;29;19942;-80
2024/02/26 00:44:07;;;;;;;;;;;9.20;99.90;;;;;;4958415;29;19911;-80
2024/02/26 00:46:33;;;;;;;;;;;9.30;99.90;;;;;;4947071;28;19914;-79
2024/02/26 00:49:02;;;;;;;;;;;9.30;99.90;;;;;;4979368;29;19910;-79
2024/02/26 00:51:28;;;;;;;;;;;9.30;99.90;;;;;;4961860;28;19914;-80
2024/02/26 00:53:54;;;;;;;;;;;9.30;99.90;;;;;;4962396;28;19906;-79
2024/02/26 00:56:21;;;;;;;;;;;9.30;99.90;;;;;;4962118;29;19890;-80
2024/02/26 00:58:47;;;;;;;;;;;8.90;99.90;;;;;;4962915;28;19917;-79
2024/02/26 01:01:12;;;;;;;;;;;9.30;99.90;;;;;;4975291;29;19899;-80
2024/02/26 01:03:38;;;;;;;;;;;9.40;99.90;;;;;;4956322;29;19938;-79
2024/02/26 01:06:12;;;;;;;;;;;9.30;99.90;;;;;;4956110;29;19906;-79
2024/02/26 01:08:40;;;;;;;;;;;9.20;99.90;;;;;;4956347;29;20043;-80
2024/02/26 01:11:07;;;;;;;;;;;9.40;99.90;;;;;;4956275;29;19906;-78
2024/02/26 01:13:33;;;;;;;;;;;9.40;99.90;;;;;;4973368;29;19913;-80
2024/02/26 01:16:00;;;;;;;;;;;9.40;99.90;;;;;;4957106;29;19910;-79
2024/02/26 01:18:29;;;;;;;;;;;9.50;99.90;;;;;;4957151;29;19941;-81
2024/02/26 01:20:54;;;;;;;;;;;8.90;99.90;;;;;;4956342;29;19972;-80
2024/02/26 01:23:20;;;;;;;;;;;9.50;99.90;;;;;;4960639;28;19898;-78
2024/02/26 01:28:21;;;;;;;;;;;9.50;99.90;;;;;;5986497;23;19921;-78
2024/02/26 01:30:47;;;;;;;;;;;9.70;99.90;;;;;;4995024;28;19916;-80
2024/02/26 01:33:12;;;;;;;;;;;9.50;99.90;;;;;;4997602;28;19972;-79
2024/02/26 01:35:38;;;;;;;;;;;9.50;99.90;;;;;;5014943;28;20382;-80
2024/02/26 01:38:04;;;;;;;;;;;9.50;99.90;;;;;;4997011;28;19906;-78
2024/02/26 01:40:29;;;;;;;;;;;9.60;99.90;;;;;;4996456;28;19921;-79
2024/02/26 01:42:55;;;;;;;;;;;9.80;99.90;;;;;;5012401;28;20128;-80
2024/02/26 01:45:23;;;;;;;;;;;9.50;99.90;;;;;;4991768;28;19909;-80
2024/02/26 01:47:50;;;;;;;;;;;9.40;99.90;;;;;;4997427;28;19933;-80
2024/02/26 01:50:16;;;;;;;;;;;9.50;99.90;;;;;;4994133;28;19920;-80
2024/02/26 01:52:42;;;;;;;;;;;9.10;99.90;;;;;;4995125;28;19925;-79
2024/02/26 01:55:08;;;;;;;;;;;9.50;99.90;;;;;;4993911;28;19916;-79
2024/02/26 01:57:33;;;;;;;;;;;9.40;99.90;;;;;;4994496;28;20425;-79
2024/02/26 01:59:59;;;;;;;;;;;9.50;99.90;;;;;;4992946;28;19906;-80
2024/02/26 02:02:25;;;;;;;;;;;9.50;99.90;;;;;;4995786;28;19914;-79
2024/02/26 02:04:51;;;;;;;;;;;9.50;99.90;;;;;;4997025;28;20375;-80
2024/02/26 02:07:17;;;;;;;;;;;9.50;99.90;;;;;;5013093;28;19910;-79
2024/02/26 02:09:42;;;;;;;;;;;10.00;99.90;;;;;;4995884;28;19933;-79
2024/02/26 02:12:09;;;;;;;;;;;9.40;99.90;;;;;;5012676;28;20440;-79
2024/02/26 02:15:01;;;;;;;;;;;9.40;99.90;;;;;;4972872;29;19921;-80
2024/02/26 02:17:29;;;;;;;;;;;9.70;99.90;;;;;;4971122;29;19961;-80
2024/02/26 02:20:17;;;;;;;;;;;9.50;99.90;;;;;;4940553;29;19921;-80
2024/02/26 02:22:44;;;;;;;;;;;9.50;99.90;;;;;;4973653;29;19910;-80
2024/02/26 02:25:09;;;;;;;;;;;9.60;99.90;;;;;;4957231;29;19934;-80
2024/02/26 02:27:51;;;;;;;;;;;9.60;99.90;;;;;;4971408;29;19897;-78
2024/02/26 02:30:18;;;;;;;;;;;9.50;99.90;;;;;;4973627;29;19899;-80
2024/02/26 02:32:59;;;;;;;;;;;9.50;99.90;;;;;;4965647;29;19950;-79
2024/02/26 02:35:31;;;;;;;;;;;9.40;99.90;;;;;;4972401;29;19905;-80
2024/02/26 02:38:23;;;;;;;;;;;9.50;99.90;;;;;;4963221;29;19969;-79
2024/02/26 02:41:07;;;;;;;;;;;9.50;99.90;;;;;;4971292;29;19915;-81
2024/02/26 02:43:33;;;;;;;;;;;9.50;99.90;;;;;;4970237;29;19930;-79
2024/02/26 02:45:59;;;;;;;;;;;9.50;99.90;;;;;;4957656;29;19979;-80
2024/02/26 02:48:24;;;;;;;;;;;9.60;99.90;;;;;;4960823;28;19978;-79
2024/02/26 02:50:51;;;;;;;;;;;9.60;99.90;;;;;;4977620;28;19917;-79
2024/02/26 02:53:16;;;;;;;;;;;9.60;99.90;;;;;;4957796;28;20395;-79
2024/02/26 02:55:43;;;;;;;;;;;9.70;99.90;;;;;;4960886;28;19941;-80
2024/02/26 02:58:32;;;;;;;;;;;9.50;99.90;;;;;;4961269;29;19897;-80
2024/02/26 03:01:00;;;;;;;;;;;9.50;99.90;;;;;;4973455;29;19965;-79
2024/02/26 03:03:26;;;;;;;;;;;9.60;99.90;;;;;;4974639;29;19891;-80
2024/02/26 03:05:51;;;;;;;;;;;9.80;99.90;;;;;;4956569;29;19917;-80
2024/02/26 03:08:19;;;;;;;;;;;9.80;99.90;;;;;;4959470;29;19957;-80
2024/02/26 03:10:44;;;;;;;;;;;10.00;99.90;;;;;;4972203;28;19912;-80
2024/02/26 03:13:10;;;;;;;;;;;9.60;99.90;;;;;;5001090;28;19945;-79
2024/02/26 03:15:35;;;;;;;;;;;9.60;99.90;;;;;;4999305;28;19928;-80
2024/02/26 03:18:01;;;;;;;;;;;9.70;99.90;;;;;;4992752;28;19913;-79
2024/02/26 03:20:26;;;;;;;;;;;9.50;99.90;;;;;;4987353;28;19902;-78
2024/02/26 03:22:52;;;;;;;;;;;9.50;99.90;;;;;;5000139;28;19914;-79
2024/02/26 03:25:19;;;;;;;;;;;9.60;99.90;;;;;;5019508;28;19983;-79
2024/02/26 03:27:45;;;;;;;;;;;9.60;99.90;;;;;;5019496;28;19909;-79
2024/02/26 03:30:10;;;;;;;;;;;9.80;99.90;;;;;;4996441;28;19969;-79
2024/02/26 03:32:36;;;;;;;;;;;9.50;99.90;;;;;;5001308;28;19921;-79
2024/02/26 03:35:02;;;;;;;;;;;9.50;99.90;;;;;;4999788;28;19909;-79
2024/02/26 03:37:29;;;;;;;;;;;9.60;99.90;;;;;;5001349;28;19905;-80
2024/02/26 03:39:58;;;;;;;;;;;9.60;99.90;;;;;;4986351;28;19961;-79
2024/02/26 03:42:24;;;;;;;;;;;9.90;99.90;;;;;;5018593;28;19910;-79
2024/02/26 03:44:50;;;;;;;;;;;9.40;99.90;;;;;;5019520;28;19905;-79
2024/02/26 03:47:16;;;;;;;;;;;9.70;99.90;;;;;;5002209;28;19898;-79
2024/02/26 03:49:42;;;;;;;;;;;9.70;99.90;;;;;;5001277;28;19904;-80
2024/02/26 03:52:08;;;;;;;;;;;9.80;99.90;;;;;;5015597;28;19912;-81
2024/02/26 03:54:35;;;;;;;;;;;9.70;99.90;;;;;;4996994;28;19913;-80
2024/02/26 03:57:01;;;;;;;;;;;9.50;99.90;;;;;;5000716;28;19933;-80
2024/02/26 03:59:26;;;;;;;;;;;9.50;99.90;;;;;;5001273;28;19918;-79
2024/02/26 04:01:52;;;;;;;;;;;9.40;99.90;;;;;;5002488;28;19906;-80
2024/02/26 04:04:17;;;;;;;;;;;9.40;99.90;;;;;;5017393;28;19890;-80
2024/02/26 04:06:46;;;;;;;;;;;9.50;99.90;;;;;;5020493;28;19917;-79
2024/02/26 04:19:33;;;;;;;;;;;9.60;99.90;;;;;;4850288;26;19913;-80
2024/02/26 04:21:59;;;;;;;;;;;9.60;99.90;;;;;;5019375;28;19941;-79
2024/02/26 04:24:25;;;;;;;;;;;9.70;99.90;;;;;;5014719;28;19914;-78
2024/02/26 04:26:50;;;;;;;;;;;9.60;99.90;;;;;;5016218;28;19969;-79
2024/02/26 04:29:16;;;;;;;;;;;9.70;99.90;;;;;;5002428;28;19897;-80
2024/02/26 04:31:42;;;;;;;;;;;9.90;99.90;;;;;;5016687;28;19905;-79
2024/02/26 04:34:08;;;;;;;;;;;9.80;99.90;;;;;;4997807;28;19941;-80
2024/02/26 04:36:35;;;;;;;;;;;10.00;99.90;;;;;;4997327;28;19917;-79
2024/02/26 04:39:02;;;;;;;;;;;9.70;99.90;;;;;;5018825;28;20002;-79
2024/02/26 04:41:28;;;;;;;;;;;9.80;99.90;;;;;;5018427;28;19920;-80
2024/02/26 04:43:53;;;;;;;;;;;9.80;99.90;;;;;;5001879;28;19909;-80
2024/02/26 04:46:21;;;;;;;;;;;9.90;99.90;;;;;;5001726;28;19925;-79
2024/02/26 04:48:47;;;;;;;;;;;9.80;99.90;;;;;;5018564;28;20405;-78
2024/02/26 04:51:14;;;;;;;;;;;9.60;99.90;;;;;;4999233;28;19893;-80
2024/02/26 04:53:41;;;;;;;;;;;9.70;99.90;;;;;;5002086;28;19898;-79
2024/02/26 04:56:08;;;;;;;;;;;9.70;99.90;;;;;;5018632;28;19900;-79
2024/02/26 04:58:34;;;;;;;;;;;9.70;99.90;;;;;;4999062;28;20681;-79
2024/02/26 05:01:01;;;;;;;;;;;9.60;99.90;;;;;;4994316;28;20374;-77
2024/02/26 05:03:26;;;;;;;;;;;9.70;99.90;;;;;;5017035;28;19921;-79
2024/02/26 05:05:53;;;;;;;;;;;9.70;99.90;;;;;;5002118;28;19893;-79
2024/02/26 05:08:19;;;;;;;;;;;9.70;99.90;;;;;;5018519;28;19916;-79
2024/02/26 05:10:45;;;;;;;;;;;10.10;99.90;;;;;;5016942;28;19921;-79
2024/02/26 05:13:11;;;;;;;;;;;9.80;99.90;;;;;;5017603;28;19908;-79
2024/02/26 05:15:36;;;;;;;;;;;9.60;99.90;;;;;;5000402;28;19909;-79
2024/02/26 05:18:02;;;;;;;;;;;9.90;99.90;;;;;;5017711;28;19922;-78
2024/02/26 05:25:41;;;;;;;;;;;9.80;99.90;;;;;;5162249;23;19944;-79
2024/02/26 05:28:06;;;;;;;;;;;9.80;99.90;;;;;;4984340;28;19909;-78
2024/02/26 05:30:32;;;;;;;;;;;9.90;99.90;;;;;;4996925;28;19913;-79
2024/02/26 05:32:58;;;;;;;;;;;9.80;99.90;;;;;;5011773;28;19906;-79
2024/02/26 05:35:27;;;;;;;;;;;9.80;99.90;;;;;;5016824;28;19905;-79
2024/02/26 05:37:54;;;;;;;;;;;9.90;99.90;;;;;;5015569;28;19928;-79
2024/02/26 05:40:19;;;;;;;;;;;9.70;99.90;;;;;;4983464;28;20029;-78
2024/02/26 05:42:45;;;;;;;;;;;9.50;99.90;;;;;;5000113;28;19921;-79
2024/02/26 05:45:11;;;;;;;;;;;9.70;99.90;;;;;;5013918;28;19929;-80
2024/02/26 05:47:42;;;;;;;;;;;9.80;99.90;;;;;;4996014;28;19897;-78
2024/02/26 05:50:10;;;;;;;;;;;9.80;99.90;;;;;;4997967;28;19998;-78
2024/02/26 05:52:40;;;;;;;;;;;9.80;99.90;;;;;;4998832;28;19905;-78
2024/02/26 05:55:05;;;;;;;;;;;9.90;99.90;;;;;;4995229;28;20019;-79
2024/02/26 05:57:31;;;;;;;;;;;9.80;99.90;;;;;;5000187;28;19912;-79
2024/02/26 06:00:03;;;;;;;;;;;9.70;99.90;;;;;;5000686;28;19894;-80
2024/02/26 06:02:32;;;;;;;;;;;9.80;99.90;;;;;;4998534;28;19945;-79
2024/02/26 06:04:57;;;;;;;;;;;9.90;99.90;;;;;;5007415;28;19917;-79
2024/02/26 06:07:23;;;;;;;;;;;9.90;99.90;;;;;;5017263;28;20002;-79
2024/02/26 06:09:49;;;;;;;;;;;9.70;99.90;;;;;;5018707;28;19910;-80
2024/02/26 06:12:15;;;;;;;;;;;9.80;99.90;;;;;;5000908;28;19897;-79
2024/02/26 06:14:42;;;;;;;;;;;9.80;99.90;;;;;;5018877;28;19894;-80
2024/02/26 06:17:07;;;;;;;;;;;9.60;99.90;;;;;;4999651;28;19932;-80
2024/02/26 06:19:33;;;;;;;;;;;9.90;99.90;;;;;;5017943;28;19894;-79
2024/02/26 06:21:58;;;;;;;;;;;9.90;99.90;;;;;;5013242;28;19897;-79
2024/02/26 06:24:24;;;;;;;;;;;10.10;99.90;;;;;;4999508;28;19917;-79
2024/02/26 06:26:50;;;;;;;;;;;10.20;99.90;;;;;;5014686;28;19921;-78
2024/02/26 06:29:16;;;;;;;;;;;10.10;99.90;;;;;;5013744;28;19913;-80
2024/02/26 06:31:41;;;;;;;;;;;10.50;99.90;;;;;;5001169;28;19897;-79
2024/02/26 06:34:07;;;;;;;;;;;10.00;99.90;;;;;;5017134;28;19914;-79
2024/02/26 06:36:34;;;;;;;;;;;10.00;99.90;;;;;;4996920;28;19932;-78
2024/02/26 06:39:00;;;;;;;;;;;10.00;99.90;;;;;;4997425;28;19945;-79
2024/02/26 06:41:27;;;;;;;;;;;10.10;99.90;;;;;;4997173;28;19920;-79
2024/02/26 06:43:53;;;;;;;;;;;10.20;99.90;;;;;;5017633;28;19906;-80
2024/02/26 06:46:19;;;;;;;;;;;10.20;99.90;;;;;;5002798;28;20012;-78
2024/02/26 06:48:44;;;;;;;;;;;10.60;99.90;;;;;;5019590;28;19909;-80
2024/02/26 06:51:10;;;;;;;;;;;10.20;99.90;;;;;;5003084;28;19910;-78
2024/02/26 06:53:36;;;;;;;;;;;10.60;99.90;;;;;;5021007;28;19910;-79
2024/02/26 06:56:01;;;;;;;;;;;9.80;99.90;;;;;;5004441;28;19916;-79
2024/02/26 06:58:27;;;;;;;;;;;10.00;99.90;;;;;;5018311;28;19908;-79
2024/02/26 07:00:52;;;;;;;;;;;10.00;99.90;;;;;;5002114;28;19890;-78
2024/02/26 07:03:18;;;;;;;;;;;10.00;99.90;;;;;;5000928;28;19909;-79
2024/02/26 07:05:45;;;;;;;;;;;10.00;99.90;;;;;;5020605;28;19917;-79
2024/02/26 07:08:11;;;;;;;;;;;10.30;99.90;;;;;;5001039;28;19913;-79
2024/02/26 07:10:37;;;;;;;;;;;10.20;99.90;;;;;;5001718;28;19961;-78
2024/02/26 07:13:03;;;;;;;;;;;10.10;99.90;;;;;;5021072;28;19909;-79
2024/02/26 07:15:29;;;;;;;;;;;10.30;99.90;;;;;;5004566;28;19900;-78
2024/02/26 07:17:54;;;;;;;;;;;10.20;99.90;;;;;;5001576;28;19937;-77
2024/02/26 07:20:20;;;;;;;;;;;10.20;99.90;;;;;;5003155;28;19897;-78
2024/02/26 07:22:46;;;;;;;;;;;10.40;99.90;;;;;;5001155;28;19918;-80
2024/02/26 07:44:55;;;;;;;;;;;10.40;99.90;;;;;;5483024;23;19954;-79
2024/02/26 08:10:39;;;;;;;;;;;10.60;99.90;;;;;;5958876;23;1200186;-80
2024/02/26 08:15:40;;;;;;;;;;;10.70;99.90;;;;;;5529371;23;19922;-79
2024/02/26 08:18:06;;;;;;;;;;;10.60;99.90;;;;;;4979826;28;19925;-79
2024/02/26 08:36:05;;;;;;;;;;;11.10;99.90;;;;;;4957312;28;19923;-79
2024/02/26 08:59:16;;;;;;;;;;;11.50;99.90;;;;;;5254700;23;19950;-80
2024/02/26 09:01:42;;;;;;;;;;;12.10;99.90;;;;;;4961835;28;19922;-80
2024/02/26 09:04:07;;;;;;;;;;;11.50;99.90;;;;;;4962444;28;19966;-80
2024/02/26 09:11:44;;;;;;;;;;;12.00;99.90;;;;;;6097607;23;19912;-79
2024/02/26 09:14:09;;;;;;;;;;;12.20;99.90;;;;;;4975458;29;19922;-79
2024/02/26 11:55:32;;;;;;;;;;;14.00;99.90;;;;;;5879058;23;20536;-78
2024/02/26 11:57:57;;;;;;;;;;;13.90;99.90;;;;;;4965092;28;19915;-79
2024/02/26 12:00:23;;;;;;;;;;;14.00;99.90;;;;;;4982011;28;19974;-78
2024/02/26 12:02:49;;;;;;;;;;;14.10;99.90;;;;;;4962013;29;19898;-79
2024/02/26 12:05:19;;;;;;;;;;;14.30;99.90;;;;;;4963703;29;19914;-79
2024/02/26 12:07:46;;;;;;;;;;;14.50;99.90;;;;;;4965669;28;19901;-78
2024/02/26 13:36:39;;;;;;;;;;;14.30;99.90;;;;;;5124282;23;19950;-78
2024/02/26 14:08:47;;;;;;;;;;;14.40;99.90;;;;;;5491888;23;19938;-79
2024/02/26 14:11:15;;;;;;;;;;;14.40;99.90;;;;;;5506660;23;19907;-78
2024/02/26 14:29:14;;;;;;;;;;;14.50;99.90;;;;;;4936926;26;19913;-79
2024/02/26 14:34:18;;;;;;;;;;;14.50;99.90;;;;;;4932947;26;19923;-79
2024/02/26 14:36:47;;;;;;;;;;;14.40;99.90;;;;;;4923491;29;19921;-79
2024/02/26 14:39:13;;;;;;;;;;;14.50;99.90;;;;;;4939528;29;19926;-80
2024/02/26 14:41:39;;;;;;;;;;;14.50;99.90;;;;;;4920242;29;19915;-79
2024/02/26 14:44:04;;;;;;;;;;;14.60;99.90;;;;;;4922506;29;19895;-79
2024/02/26 14:46:30;;;;;;;;;;;14.70;99.90;;;;;;4938782;28;19911;-79
2024/02/26 14:48:55;;;;;;;;;;;14.70;99.90;;;;;;5781467;23;19976;-78
2024/02/26 14:51:24;;;;;;;;;;;14.80;99.90;;;;;;4960448;28;19903;-79
2024/02/26 14:53:50;;;;;;;;;;;14.70;99.90;;;;;;4975273;28;19894;-78
2024/02/26 14:56:16;;;;;;;;;;;14.70;99.90;;;;;;4963575;28;19910;-78
2024/02/26 14:58:45;;;;;;;;;;;14.60;99.90;;;;;;4977436;28;19894;-78
2024/02/26 15:01:12;;;;;;;;;;;14.40;99.90;;;;;;4962867;28;19936;-78
2024/02/26 15:03:38;;;;;;;;;;;14.40;99.90;;;;;;4977614;28;19914;-78
2024/02/26 15:06:04;;;;;;;;;;;14.30;99.90;;;;;;4962549;29;19913;-78
2024/02/26 15:08:29;;;;;;;;;;;14.20;99.90;;;;;;4964876;28;19966;-78
2024/02/26 15:10:56;;;;;;;;;;;14.30;99.90;;;;;;4961712;29;19890;-78
2024/02/26 15:13:22;;;;;;;;;;;14.20;99.90;;;;;;4975766;29;19946;-79
2024/02/26 15:15:48;;;;;;;;;;;14.20;99.90;;;;;;4960054;29;19913;-78
2024/02/26 15:18:16;;;;;;;;;;;14.10;99.90;;;;;;4977552;29;20295;-79
2024/02/26 15:20:43;;;;;;;;;;;14.00;99.90;;;;;;4961928;29;19891;-79
2024/02/26 15:23:09;;;;;;;;;;;14.00;99.90;;;;;;4977665;28;19957;-79
2024/02/26 15:25:34;;;;;;;;;;;13.80;99.90;;;;;;4970790;29;19894;-79
2024/02/26 15:28:01;;;;;;;;;;;13.90;99.90;;;;;;4972795;29;19922;-79
2024/02/26 15:30:29;;;;;;;;;;;14.50;99.90;;;;;;4954727;29;19907;-78
2024/02/26 15:32:55;;;;;;;;;;;13.80;99.90;;;;;;4957638;29;19948;-78
2024/02/26 15:35:22;;;;;;;;;;;13.80;99.90;;;;;;4977520;28;19910;-79
2024/02/26 15:37:47;;;;;;;;;;;13.70;99.90;;;;;;4961340;28;19916;-79
2024/02/26 15:47:59;;;;;;;;;;;13.70;99.90;;;;;;5423201;23;19926;-78
2024/02/26 15:50:25;;;;;;;;;;;13.60;99.90;;;;;;4962059;28;19981;-77
2024/02/26 16:13:34;;;;;;;;;;;12.90;99.90;;;;;;5111356;23;19923;-78
2024/02/26 16:16:03;;;;;;;;;;;12.80;99.90;;;;;;4974252;29;19978;-78
2024/02/26 16:18:29;;;;;;;;;;;12.70;99.90;;;;;;4959246;29;19906;-78
2024/02/26 16:20:56;;;;;;;;;;;12.30;99.90;;;;;;4959346;29;19913;-78
2024/02/26 16:23:22;;;;;;;;;;;12.60;99.90;;;;;;4960401;29;19921;-78
2024/02/26 16:25:48;;;;;;;;;;;12.50;99.90;;;;;;4961328;28;19910;-78
2024/02/26 16:33:25;;;;;;;;;;;12.60;99.90;;;;;;5061709;23;19923;-79
2024/02/26 17:04:21;;;;;;;;;;;12.00;99.90;;;;;;6034361;23;19927;-80
2024/02/26 17:17:56;;;;;;;;;;;11.80;99.90;;;;;;5223122;23;19930;-79
2024/02/26 17:20:21;;;;;;;;;;;11.60;99.90;;;;;;4972984;28;19914;-79
2024/02/26 17:22:47;;;;;;;;;;;11.70;99.90;;;;;;4958335;29;19925;-79
2024/02/26 17:25:16;;;;;;;;;;;11.70;99.90;;;;;;4960235;28;19914;-79
2024/02/26 17:27:43;;;;;;;;;;;11.80;99.90;;;;;;4980193;28;19938;-78
2024/02/26 17:30:10;;;;;;;;;;;11.70;99.90;;;;;;4962856;28;19895;-79
2024/02/26 17:32:36;;;;;;;;;;;11.60;99.90;;;;;;4963300;28;19906;-79
2024/02/26 17:35:03;;;;;;;;;;;11.60;99.90;;;;;;4962958;28;19894;-79
2024/02/26 17:37:30;;;;;;;;;;;11.60;99.90;;;;;;4963171;28;19933;-80
2024/02/26 17:45:07;;;;;;;;;;;11.30;99.90;;;;;;5384450;23;20021;-79
2024/02/26 17:47:33;;;;;;;;;;;11.20;99.90;;;;;;4959398;29;19915;-79
2024/02/26 17:49:59;;;;;;;;;;;11.10;99.90;;;;;;4956624;28;19922;-79
2024/02/26 18:13:08;;;;;;;;;;;10.90;99.90;;;;;;5647301;23;19927;-79
2024/02/26 18:15:34;;;;;;;;;;;10.90;99.90;;;;;;4979259;28;19914;-80
2024/02/26 18:23:10;;;;;;;;;;;11.00;99.90;;;;;;5593490;23;19926;-78
2024/02/26 18:25:36;;;;;;;;;;;11.10;99.90;;;;;;4977119;28;19903;-80
2024/02/26 18:28:01;;;;;;;;;;;11.20;99.90;;;;;;4963228;28;19894;-80
2024/02/26 18:30:28;;;;;;;;;;;11.30;99.90;;;;;;4978997;28;19922;-79
2024/02/26 18:32:54;;;;;;;;;;;11.30;99.90;;;;;;4979317;28;19918;-79
2024/02/26 18:35:20;;;;;;;;;;;11.40;99.90;;;;;;4979049;28;19918;-79
2024/02/26 18:37:45;;;;;;;;;;;11.10;99.90;;;;;;4979157;28;19917;-80
2024/02/26 18:40:11;;;;;;;;;;;11.30;99.90;;;;;;4965834;28;19894;-79
2024/02/26 18:42:39;;;;;;;;;;;11.20;99.90;;;;;;4983369;28;19903;-79
2024/02/26 18:55:26;;;;;;;;;;;11.00;99.90;;;;;;5561392;23;19930;-79
2024/02/26 19:08:16;;;;;;;;;;;10.60;99.90;;;;;;5534144;23;19906;-79
2024/02/26 19:10:42;;;;;;;;;;;10.50;99.90;;;;;;4979667;29;19897;-79
2024/02/26 19:13:08;;;;;;;;;;;10.50;99.90;;;;;;4980145;28;19926;-80
2024/02/26 19:15:34;;;;;;;;;;;10.60;99.90;;;;;;4980580;28;19911;-80
2024/02/26 19:20:36;;;;;;;;;;;10.70;99.90;;;;;;5357790;23;19907;-81
2024/02/26 19:30:48;;;;;;;;;;;10.50;99.90;;;;;;5141716;23;19907;-79
2024/02/26 19:41:00;;;;;;;;;;;10.20;99.90;;;;;;5016150;23;19927;-78
2024/02/26 19:43:26;;;;;;;;;;;10.10;99.90;;;;;;4955621;29;19917;-78
2024/02/26 19:45:53;;;;;;;;;;;10.10;99.90;;;;;;4977008;29;19891;-79
2024/02/26 19:48:19;;;;;;;;;;;10.00;99.90;;;;;;4979776;28;19924;-78
2024/02/26 19:50:50;;;;;;;;;;;10.10;99.90;;;;;;4979905;29;19906;-79
2024/02/26 19:53:19;;;;;;;;;;;10.20;99.90;;;;;;4963588;29;19891;-79
2024/02/26 19:55:45;;;;;;;;;;;10.20;99.90;;;;;;4979694;29;20382;-78
2024/02/26 19:58:11;;;;;;;;;;;10.30;99.90;;;;;;4978966;29;19965;-79
2024/02/26 20:00:38;;;;;;;;;;;10.60;99.90;;;;;;4979055;28;20020;-79
2024/02/26 20:03:07;;;;;;;;;;;10.70;99.90;;;;;;4980524;29;19895;-80
2024/02/26 20:05:36;;;;;;;;;;;10.70;99.90;;;;;;4980955;28;19911;-80
2024/02/26 20:08:04;;;;;;;;;;;11.00;99.90;;;;;;4964454;28;19977;-80
2024/02/26 20:10:31;;;;;;;;;;;11.00;99.90;;;;;;4979789;29;19936;-80
2024/02/26 20:12:59;;;;;;;;;;;11.10;99.90;;;;;;4980387;28;19978;-81
2024/02/26 20:15:26;;;;;;;;;;;11.10;99.90;;;;;;4964894;28;19917;-80
2024/02/26 20:25:39;;;;;;;;;;;12.20;99.90;;;;;;5869414;23;19967;-79
2024/02/26 20:28:05;;;;;;;;;;;12.30;99.90;;;;;;4979102;28;19981;-79
2024/02/26 20:40:56;;;;;;;;;;;11.90;99.90;;;;;;6074298;23;19920;-79
2024/02/26 20:43:22;;;;;;;;;;;11.80;99.90;;;;;;4957711;28;19955;-80
2024/02/26 20:45:49;;;;;;;;;;;11.90;99.90;;;;;;4957419;29;19958;-80
2024/02/26 20:48:18;;;;;;;;;;;11.90;99.90;;;;;;4953221;29;19914;-79
2024/02/26 20:50:45;;;;;;;;;;;11.90;99.90;;;;;;4957432;28;19997;-79
2024/02/26 20:53:11;;;;;;;;;;;12.00;99.90;;;;;;4958806;28;19964;-78
2024/02/26 20:55:42;;;;;;;;;;;12.00;99.90;;;;;;4954270;29;19911;-79
2024/02/26 20:58:09;;;;;;;;;;;11.80;99.90;;;;;;4952574;28;19915;-79
2024/02/26 21:00:38;;;;;;;;;;;11.90;99.90;;;;;;4957765;28;19919;-79
2024/02/26 21:03:08;;;;;;;;;;;11.90;99.90;;;;;;4954752;29;19915;-79
2024/02/26 21:05:37;;;;;;;;;;;11.70;99.90;;;;;;4957691;29;19890;-80
2024/02/26 21:08:03;;;;;;;;;;;11.50;99.90;;;;;;4959802;28;19985;-79
2024/02/26 21:10:29;;;;;;;;;;;11.30;99.90;;;;;;4955956;29;19933;-79
2024/02/26 21:12:55;;;;;;;;;;;11.20;99.90;;;;;;4953716;29;20345;-79
2024/02/26 21:15:21;;;;;;;;;;;11.10;99.90;;;;;;4951856;29;19891;-79
2024/02/26 21:17:47;;;;;;;;;;;11.00;99.90;;;;;;4953973;29;19910;-79
2024/02/26 21:20:14;;;;;;;;;;;10.80;99.90;;;;;;4950864;29;19922;-78
2024/02/26 21:22:43;;;;;;;;;;;10.70;99.90;;;;;;4948613;29;19919;-79
2024/02/26 21:25:09;;;;;;;;;;;10.60;99.90;;;;;;4954672;29;19930;-79
2024/02/26 21:27:35;;;;;;;;;;;10.70;99.90;;;;;;4959888;28;19895;-79
2024/02/26 21:35:13;;;;;;;;;;;10.80;99.90;;;;;;5013090;23;19907;-79
2024/02/26 21:37:38;;;;;;;;;;;10.80;99.90;;;;;;4942990;29;19909;-79
2024/02/26 21:40:04;;;;;;;;;;;10.60;99.90;;;;;;4943760;28;20289;-78
2024/02/26 21:42:30;;;;;;;;;;;10.70;99.90;;;;;;4958972;28;19923;-81
2024/02/26 21:44:57;;;;;;;;;;;10.80;99.90;;;;;;4960286;28;19910;-80
2024/02/26 21:47:22;;;;;;;;;;;10.90;99.90;;;;;;4956818;29;19898;-79
2024/02/26 21:49:48;;;;;;;;;;;10.90;99.90;;;;;;4959352;28;19958;-78
2024/02/26 21:52:17;;;;;;;;;;;10.90;99.90;;;;;;4942881;29;19902;-78
2024/02/26 21:54:47;;;;;;;;;;;10.90;99.90;;;;;;4958758;29;19966;-77
2024/02/26 21:57:12;;;;;;;;;;;11.10;99.90;;;;;;4942404;29;19935;-78
2024/02/26 21:59:38;;;;;;;;;;;11.00;99.90;;;;;;4941191;29;19919;-78
2024/02/26 22:02:04;;;;;;;;;;;11.10;99.90;;;;;;4942780;29;19919;-78
2024/02/26 22:04:29;;;;;;;;;;;11.10;99.90;;;;;;4942845;29;19909;-78
2024/02/26 22:06:55;;;;;;;;;;;11.20;99.90;;;;;;4942515;29;19974;-79
2024/02/26 22:09:21;;;;;;;;;;;11.10;99.90;;;;;;4942113;29;19895;-79
2024/02/26 22:11:48;;;;;;;;;;;11.10;99.90;;;;;;4942533;28;19895;-79
2024/02/26 22:40:28;;;;;;;;;;;10.50;99.90;;;;;;5007418;23;19913;-79
2024/02/26 22:42:55;;;;;;;;;;;10.30;99.90;;;;;;4961669;29;19914;-78
